sensor_id;sensor_type;location;lat;lon;timestamp;P1;durP1;ratioP1;P2;durP2;ratioP2
5460;SDS011;2753;49.196;8.286;2023-02-23T00:00:23;50.07;;;26.47;;
5460;SDS011;2753;49.196;8.286;2023-02-23T00:02:56;43.73;;;23.77;;
5460;SDS011;2753;49.196;8.286;2023-02-23T00:05:29;49.90;;;23.97;;
5460;SDS011;2753;49.196;8.286;2023-02-23T00:07:59;56.97;;;24.33;;
5460;SDS011;2753;49.196;8.286;2023-02-23T00:10:26;48.23;;;26.30;;
5460;SDS011;2753;49.196;8.286;2023-02-23T00:12:57;48.33;;;25.50;;
5460;SDS011;2753;49.196;8.286;2023-02-23T00:15:24;50.10;;;25.63;;
5460;SDS011;2753;49.196;8.286;2023-02-23T00:17:54;50.63;;;26.00;;
5460;SDS011;2753;49.196;8.286;2023-02-23T00:20:21;52.67;;;25.60;;
5460;SDS011;2753;49.196;8.286;2023-02-23T00:22:52;65.00;;;26.33;;
5460;SDS011;2753;49.196;8.286;2023-02-23T00:25:20;51.43;;;27.43;;
5460;SDS011;2753;49.196;8.286;2023-02-23T00:27:46;56.23;;;25.23;;
5460;SDS011;2753;49.196;8.286;2023-02-23T00:30:12;57.10;;;28.57;;
5460;SDS011;2753;49.196;8.286;2023-02-23T00:32:40;55.43;;;27.93;;
5460;SDS011;2753;49.196;8.286;2023-02-23T00:35:06;54.83;;;27.00;;
5460;SDS011;2753;49.196;8.286;2023-02-23T00:37:36;48.10;;;26.20;;
5460;SDS011;2753;49.196;8.286;2023-02-23T00:40:02;58.70;;;28.10;;
5460;SDS011;2753;49.196;8.286;2023-02-23T00:42:32;57.13;;;27.30;;
5460;SDS011;2753;49.196;8.286;2023-02-23T00:44:58;57.97;;;28.40;;
5460;SDS011;2753;49.196;8.286;2023-02-23T00:47:30;57.93;;;26.63;;
5460;SDS011;2753;49.196;8.286;2023-02-23T00:49:56;62.17;;;28.27;;
5460;SDS011;2753;49.196;8.286;2023-02-23T00:52:22;55.40;;;28.00;;
5460;SDS011;2753;49.196;8.286;2023-02-23T00:54:47;63.97;;;27.80;;
5460;SDS011;2753;49.196;8.286;2023-02-23T00:57:13;65.60;;;27.73;;
5460;SDS011;2753;49.196;8.286;2023-02-23T00:59:39;61.37;;;29.63;;
5460;SDS011;2753;49.196;8.286;2023-02-23T01:02:04;63.40;;;29.27;;
5460;SDS011;2753;49.196;8.286;2023-02-23T01:04:30;57.20;;;28.33;;
5460;SDS011;2753;49.196;8.286;2023-02-23T01:06:56;57.10;;;27.67;;
5460;SDS011;2753;49.196;8.286;2023-02-23T01:09:21;54.47;;;26.10;;
5460;SDS011;2753;49.196;8.286;2023-02-23T01:11:52;57.17;;;25.90;;
5460;SDS011;2753;49.196;8.286;2023-02-23T01:14:20;53.10;;;27.20;;
5460;SDS011;2753;49.196;8.286;2023-02-23T01:16:46;56.37;;;26.77;;
5460;SDS011;2753;49.196;8.286;2023-02-23T01:19:12;52.63;;;27.23;;
5460;SDS011;2753;49.196;8.286;2023-02-23T01:21:39;60.63;;;28.03;;
5460;SDS011;2753;49.196;8.286;2023-02-23T01:24:06;61.93;;;28.70;;
5460;SDS011;2753;49.196;8.286;2023-02-23T01:26:33;51.23;;;27.40;;
5460;SDS011;2753;49.196;8.286;2023-02-23T01:29:05;54.67;;;26.93;;
5460;SDS011;2753;49.196;8.286;2023-02-23T01:31:33;55.40;;;27.63;;
5460;SDS011;2753;49.196;8.286;2023-02-23T01:33:59;53.27;;;27.07;;
5460;SDS011;2753;49.196;8.286;2023-02-23T01:36:27;47.13;;;25.10;;
5460;SDS011;2753;49.196;8.286;2023-02-23T01:38:54;64.23;;;29.30;;
5460;SDS011;2753;49.196;8.286;2023-02-23T01:41:24;62.73;;;27.00;;
5460;SDS011;2753;49.196;8.286;2023-02-23T01:43:55;54.10;;;27.70;;
5460;SDS011;2753;49.196;8.286;2023-02-23T01:46:22;63.70;;;29.70;;
5460;SDS011;2753;49.196;8.286;2023-02-23T01:48:48;66.67;;;28.40;;
5460;SDS011;2753;49.196;8.286;2023-02-23T01:51:16;64.27;;;27.80;;
5460;SDS011;2753;49.196;8.286;2023-02-23T01:53:51;52.70;;;30.40;;
5460;SDS011;2753;49.196;8.286;2023-02-23T01:56:28;61.97;;;29.47;;
5460;SDS011;2753;49.196;8.286;2023-02-23T01:58:56;56.83;;;27.70;;
5460;SDS011;2753;49.196;8.286;2023-02-23T02:01:26;59.43;;;27.73;;
5460;SDS011;2753;49.196;8.286;2023-02-23T02:03:55;54.73;;;27.40;;
5460;SDS011;2753;49.196;8.286;2023-02-23T02:06:26;59.20;;;26.87;;
5460;SDS011;2753;49.196;8.286;2023-02-23T02:08:54;60.57;;;30.23;;
5460;SDS011;2753;49.196;8.286;2023-02-23T02:11:23;62.17;;;28.57;;
5460;SDS011;2753;49.196;8.286;2023-02-23T02:13:53;62.27;;;30.07;;
5460;SDS011;2753;49.196;8.286;2023-02-23T02:28:12;55.47;;;28.90;;
5460;SDS011;2753;49.196;8.286;2023-02-23T02:47:16;73.30;;;33.10;;
5460;SDS011;2753;49.196;8.286;2023-02-23T02:49:50;73.73;;;35.40;;
5460;SDS011;2753;49.196;8.286;2023-02-23T02:52:31;70.00;;;33.43;;
5460;SDS011;2753;49.196;8.286;2023-02-23T02:55:13;72.93;;;34.17;;
5460;SDS011;2753;49.196;8.286;2023-02-23T02:57:42;61.70;;;32.20;;
5460;SDS011;2753;49.196;8.286;2023-02-23T03:00:21;63.30;;;32.70;;
5460;SDS011;2753;49.196;8.286;2023-02-23T03:06:33;68.67;;;35.00;;
5460;SDS011;2753;49.196;8.286;2023-02-23T03:12:31;74.17;;;35.00;;
5460;SDS011;2753;49.196;8.286;2023-02-23T03:21:25;77.50;;;35.70;;
5460;SDS011;2753;49.196;8.286;2023-02-23T03:30:26;71.23;;;34.37;;
5460;SDS011;2753;49.196;8.286;2023-02-23T03:33:28;70.93;;;33.17;;
5460;SDS011;2753;49.196;8.286;2023-02-23T03:36:20;62.00;;;31.90;;
5460;SDS011;2753;49.196;8.286;2023-02-23T03:42:15;64.67;;;31.43;;
5460;SDS011;2753;49.196;8.286;2023-02-23T03:45:06;57.13;;;31.07;;
5460;SDS011;2753;49.196;8.286;2023-02-23T03:47:55;63.47;;;34.10;;
5460;SDS011;2753;49.196;8.286;2023-02-23T03:50:44;56.37;;;34.60;;
5460;SDS011;2753;49.196;8.286;2023-02-23T03:56:39;56.23;;;32.40;;
5460;SDS011;2753;49.196;8.286;2023-02-23T03:59:28;64.13;;;34.27;;
5460;SDS011;2753;49.196;8.286;2023-02-23T04:02:17;64.67;;;32.97;;
5460;SDS011;2753;49.196;8.286;2023-02-23T04:05:05;59.80;;;33.50;;
5460;SDS011;2753;49.196;8.286;2023-02-23T04:07:53;60.50;;;31.27;;
5460;SDS011;2753;49.196;8.286;2023-02-23T04:10:40;62.17;;;32.93;;
5460;SDS011;2753;49.196;8.286;2023-02-23T04:13:30;58.77;;;33.53;;
5460;SDS011;2753;49.196;8.286;2023-02-23T04:16:00;62.50;;;32.70;;
5460;SDS011;2753;49.196;8.286;2023-02-23T04:18:31;62.70;;;31.33;;
5460;SDS011;2753;49.196;8.286;2023-02-23T04:20:59;71.07;;;34.80;;
5460;SDS011;2753;49.196;8.286;2023-02-23T04:23:25;55.93;;;30.00;;
5460;SDS011;2753;49.196;8.286;2023-02-23T04:25:52;70.23;;;31.73;;
5460;SDS011;2753;49.196;8.286;2023-02-23T04:28:19;73.10;;;32.73;;
5460;SDS011;2753;49.196;8.286;2023-02-23T04:30:46;56.27;;;31.17;;
5460;SDS011;2753;49.196;8.286;2023-02-23T04:33:12;58.03;;;31.37;;
5460;SDS011;2753;49.196;8.286;2023-02-23T04:35:38;60.10;;;31.13;;
5460;SDS011;2753;49.196;8.286;2023-02-23T04:38:10;60.60;;;32.40;;
5460;SDS011;2753;49.196;8.286;2023-02-23T04:40:36;56.33;;;30.70;;
5460;SDS011;2753;49.196;8.286;2023-02-23T04:43:01;52.50;;;30.23;;
5460;SDS011;2753;49.196;8.286;2023-02-23T04:45:27;49.10;;;28.80;;
5460;SDS011;2753;49.196;8.286;2023-02-23T04:47:53;60.27;;;30.13;;
5460;SDS011;2753;49.196;8.286;2023-02-23T04:50:19;60.07;;;29.73;;
5460;SDS011;2753;49.196;8.286;2023-02-23T04:52:45;52.73;;;28.33;;
5460;SDS011;2753;49.196;8.286;2023-02-23T04:55:20;54.97;;;27.80;;
5460;SDS011;2753;49.196;8.286;2023-02-23T04:57:48;53.37;;;27.53;;
5460;SDS011;2753;49.196;8.286;2023-02-23T05:00:14;47.23;;;28.60;;
5460;SDS011;2753;49.196;8.286;2023-02-23T05:02:40;53.07;;;28.40;;
5460;SDS011;2753;49.196;8.286;2023-02-23T05:05:06;52.70;;;28.90;;
5460;SDS011;2753;49.196;8.286;2023-02-23T05:07:33;54.07;;;28.43;;
5460;SDS011;2753;49.196;8.286;2023-02-23T05:09:59;55.73;;;28.30;;
5460;SDS011;2753;49.196;8.286;2023-02-23T05:12:24;51.13;;;29.03;;
5460;SDS011;2753;49.196;8.286;2023-02-23T05:14:50;48.13;;;26.20;;
5460;SDS011;2753;49.196;8.286;2023-02-23T05:17:16;64.53;;;29.50;;
5460;SDS011;2753;49.196;8.286;2023-02-23T05:19:41;52.43;;;27.27;;
5460;SDS011;2753;49.196;8.286;2023-02-23T05:22:07;58.27;;;27.70;;
5460;SDS011;2753;49.196;8.286;2023-02-23T05:24:36;52.20;;;29.13;;
5460;SDS011;2753;49.196;8.286;2023-02-23T05:27:06;52.73;;;30.83;;
5460;SDS011;2753;49.196;8.286;2023-02-23T05:29:32;48.87;;;27.83;;
5460;SDS011;2753;49.196;8.286;2023-02-23T05:31:58;54.93;;;26.93;;
5460;SDS011;2753;49.196;8.286;2023-02-23T05:34:23;49.27;;;27.33;;
5460;SDS011;2753;49.196;8.286;2023-02-23T05:36:49;53.27;;;29.97;;
5460;SDS011;2753;49.196;8.286;2023-02-23T05:39:15;52.63;;;29.07;;
5460;SDS011;2753;49.196;8.286;2023-02-23T05:41:40;58.30;;;30.43;;
5460;SDS011;2753;49.196;8.286;2023-02-23T05:44:06;54.30;;;29.10;;
5460;SDS011;2753;49.196;8.286;2023-02-23T05:46:32;50.17;;;28.33;;
5460;SDS011;2753;49.196;8.286;2023-02-23T05:48:59;57.23;;;29.30;;
5460;SDS011;2753;49.196;8.286;2023-02-23T05:51:26;50.90;;;28.10;;
5460;SDS011;2753;49.196;8.286;2023-02-23T05:53:53;58.23;;;30.43;;
5460;SDS011;2753;49.196;8.286;2023-02-23T05:56:19;57.87;;;31.00;;
5460;SDS011;2753;49.196;8.286;2023-02-23T05:58:46;54.70;;;30.30;;
5460;SDS011;2753;49.196;8.286;2023-02-23T06:01:12;55.07;;;28.63;;
5460;SDS011;2753;49.196;8.286;2023-02-23T06:03:38;59.03;;;30.10;;
5460;SDS011;2753;49.196;8.286;2023-02-23T06:06:04;53.90;;;27.90;;
5460;SDS011;2753;49.196;8.286;2023-02-23T06:08:30;56.10;;;30.20;;
5460;SDS011;2753;49.196;8.286;2023-02-23T06:10:55;51.60;;;28.83;;
5460;SDS011;2753;49.196;8.286;2023-02-23T06:13:21;53.83;;;28.57;;
5460;SDS011;2753;49.196;8.286;2023-02-23T06:15:47;53.90;;;28.53;;
5460;SDS011;2753;49.196;8.286;2023-02-23T06:18:13;52.93;;;28.20;;
5460;SDS011;2753;49.196;8.286;2023-02-23T06:20:39;122.13;;;55.23;;
5460;SDS011;2753;49.196;8.286;2023-02-23T06:23:05;73.63;;;43.20;;
5460;SDS011;2753;49.196;8.286;2023-02-23T06:25:31;64.93;;;37.33;;
5460;SDS011;2753;49.196;8.286;2023-02-23T06:27:57;85.53;;;56.33;;
5460;SDS011;2753;49.196;8.286;2023-02-23T06:30:22;70.13;;;46.70;;
5460;SDS011;2753;49.196;8.286;2023-02-23T06:32:48;72.07;;;40.70;;
5460;SDS011;2753;49.196;8.286;2023-02-23T06:35:14;73.90;;;40.80;;
5460;SDS011;2753;49.196;8.286;2023-02-23T06:37:40;71.30;;;34.50;;
5460;SDS011;2753;49.196;8.286;2023-02-23T06:40:05;51.90;;;30.57;;
5460;SDS011;2753;49.196;8.286;2023-02-23T06:42:32;64.30;;;32.23;;
5460;SDS011;2753;49.196;8.286;2023-02-23T06:45:00;57.83;;;31.20;;
5460;SDS011;2753;49.196;8.286;2023-02-23T06:47:26;55.10;;;31.80;;
5460;SDS011;2753;49.196;8.286;2023-02-23T06:49:51;48.30;;;28.70;;
5460;SDS011;2753;49.196;8.286;2023-02-23T06:52:17;54.47;;;29.93;;
5460;SDS011;2753;49.196;8.286;2023-02-23T06:54:43;53.60;;;29.07;;
5460;SDS011;2753;49.196;8.286;2023-02-23T06:57:09;53.70;;;30.07;;
5460;SDS011;2753;49.196;8.286;2023-02-23T06:59:35;57.37;;;29.87;;
5460;SDS011;2753;49.196;8.286;2023-02-23T07:02:02;56.50;;;30.67;;
5460;SDS011;2753;49.196;8.286;2023-02-23T07:04:31;49.57;;;28.77;;
5460;SDS011;2753;49.196;8.286;2023-02-23T07:06:57;54.40;;;30.00;;
5460;SDS011;2753;49.196;8.286;2023-02-23T07:09:23;53.27;;;30.67;;
5460;SDS011;2753;49.196;8.286;2023-02-23T07:11:49;58.10;;;30.87;;
5460;SDS011;2753;49.196;8.286;2023-02-23T07:14:15;57.50;;;31.37;;
5460;SDS011;2753;49.196;8.286;2023-02-23T07:16:41;64.60;;;32.37;;
5460;SDS011;2753;49.196;8.286;2023-02-23T07:19:07;56.43;;;33.60;;
5460;SDS011;2753;49.196;8.286;2023-02-23T07:21:32;60.50;;;31.50;;
5460;SDS011;2753;49.196;8.286;2023-02-23T07:23:58;56.83;;;32.27;;
5460;SDS011;2753;49.196;8.286;2023-02-23T07:26:25;56.43;;;32.50;;
5460;SDS011;2753;49.196;8.286;2023-02-23T07:28:51;62.10;;;31.33;;
5460;SDS011;2753;49.196;8.286;2023-02-23T07:31:17;55.83;;;29.40;;
5460;SDS011;2753;49.196;8.286;2023-02-23T07:33:43;54.13;;;30.17;;
5460;SDS011;2753;49.196;8.286;2023-02-23T07:36:09;60.57;;;30.97;;
5460;SDS011;2753;49.196;8.286;2023-02-23T07:38:35;47.90;;;28.80;;
5460;SDS011;2753;49.196;8.286;2023-02-23T07:41:01;57.07;;;29.97;;
5460;SDS011;2753;49.196;8.286;2023-02-23T07:43:27;61.93;;;29.20;;
5460;SDS011;2753;49.196;8.286;2023-02-23T07:45:53;55.67;;;30.07;;
5460;SDS011;2753;49.196;8.286;2023-02-23T07:48:22;64.53;;;30.43;;
5460;SDS011;2753;49.196;8.286;2023-02-23T07:50:48;54.30;;;28.53;;
5460;SDS011;2753;49.196;8.286;2023-02-23T07:53:13;50.00;;;28.43;;
5460;SDS011;2753;49.196;8.286;2023-02-23T07:55:39;46.07;;;26.33;;
5460;SDS011;2753;49.196;8.286;2023-02-23T07:58:05;45.50;;;27.73;;
5460;SDS011;2753;49.196;8.286;2023-02-23T08:00:32;50.03;;;26.43;;
5460;SDS011;2753;49.196;8.286;2023-02-23T08:02:58;48.83;;;25.50;;
5460;SDS011;2753;49.196;8.286;2023-02-23T08:05:25;40.67;;;23.80;;
5460;SDS011;2753;49.196;8.286;2023-02-23T08:07:52;40.53;;;23.13;;
5460;SDS011;2753;49.196;8.286;2023-02-23T08:10:18;41.33;;;23.17;;
5460;SDS011;2753;49.196;8.286;2023-02-23T08:12:44;36.07;;;23.00;;
5460;SDS011;2753;49.196;8.286;2023-02-23T08:15:09;39.10;;;22.57;;
5460;SDS011;2753;49.196;8.286;2023-02-23T08:17:36;36.53;;;20.33;;
5460;SDS011;2753;49.196;8.286;2023-02-23T08:20:03;40.03;;;21.03;;
5460;SDS011;2753;49.196;8.286;2023-02-23T08:22:30;41.13;;;19.53;;
5460;SDS011;2753;49.196;8.286;2023-02-23T08:24:55;35.40;;;20.80;;
5460;SDS011;2753;49.196;8.286;2023-02-23T08:27:22;37.93;;;19.90;;
5460;SDS011;2753;49.196;8.286;2023-02-23T08:29:48;28.40;;;17.97;;
5460;SDS011;2753;49.196;8.286;2023-02-23T08:32:16;37.93;;;18.60;;
5460;SDS011;2753;49.196;8.286;2023-02-23T08:34:42;29.87;;;17.13;;
5460;SDS011;2753;49.196;8.286;2023-02-23T08:37:08;33.03;;;17.33;;
5460;SDS011;2753;49.196;8.286;2023-02-23T08:39:35;31.23;;;17.27;;
5460;SDS011;2753;49.196;8.286;2023-02-23T08:42:02;28.43;;;16.37;;
5460;SDS011;2753;49.196;8.286;2023-02-23T08:44:28;31.73;;;17.53;;
5460;SDS011;2753;49.196;8.286;2023-02-23T08:46:54;30.97;;;16.13;;
5460;SDS011;2753;49.196;8.286;2023-02-23T08:49:22;28.40;;;15.73;;
5460;SDS011;2753;49.196;8.286;2023-02-23T08:51:48;30.93;;;15.87;;
5460;SDS011;2753;49.196;8.286;2023-02-23T08:54:14;26.83;;;15.10;;
5460;SDS011;2753;49.196;8.286;2023-02-23T08:56:41;38.57;;;15.20;;
5460;SDS011;2753;49.196;8.286;2023-02-23T08:59:08;32.60;;;15.13;;
5460;SDS011;2753;49.196;8.286;2023-02-23T09:01:35;22.63;;;13.73;;
5460;SDS011;2753;49.196;8.286;2023-02-23T09:04:01;30.17;;;14.33;;
5460;SDS011;2753;49.196;8.286;2023-02-23T09:06:28;25.70;;;14.33;;
5460;SDS011;2753;49.196;8.286;2023-02-23T09:08:54;26.33;;;12.80;;
5460;SDS011;2753;49.196;8.286;2023-02-23T09:11:21;27.53;;;12.90;;
5460;SDS011;2753;49.196;8.286;2023-02-23T09:13:47;24.37;;;12.20;;
5460;SDS011;2753;49.196;8.286;2023-02-23T09:16:13;19.57;;;12.10;;
5460;SDS011;2753;49.196;8.286;2023-02-23T09:18:39;20.87;;;11.73;;
5460;SDS011;2753;49.196;8.286;2023-02-23T09:21:05;15.77;;;9.97;;
5460;SDS011;2753;49.196;8.286;2023-02-23T09:23:34;18.53;;;10.63;;
5460;SDS011;2753;49.196;8.286;2023-02-23T09:26:05;21.40;;;10.53;;
5460;SDS011;2753;49.196;8.286;2023-02-23T09:28:32;20.80;;;10.50;;
5460;SDS011;2753;49.196;8.286;2023-02-23T09:31:06;19.90;;;11.80;;
5460;SDS011;2753;49.196;8.286;2023-02-23T09:33:33;20.70;;;9.83;;
5460;SDS011;2753;49.196;8.286;2023-02-23T09:35:59;27.33;;;10.63;;
5460;SDS011;2753;49.196;8.286;2023-02-23T09:38:27;20.20;;;9.30;;
5460;SDS011;2753;49.196;8.286;2023-02-23T09:40:54;27.00;;;10.00;;
5460;SDS011;2753;49.196;8.286;2023-02-23T09:48:44;16.23;;;9.87;;
5460;SDS011;2753;49.196;8.286;2023-02-23T09:51:11;18.73;;;9.20;;
5460;SDS011;2753;49.196;8.286;2023-02-23T09:53:41;21.17;;;9.50;;
5460;SDS011;2753;49.196;8.286;2023-02-23T09:58:46;22.73;;;9.93;;
5460;SDS011;2753;49.196;8.286;2023-02-23T10:04:12;19.67;;;9.13;;
5460;SDS011;2753;49.196;8.286;2023-02-23T10:06:45;16.47;;;9.07;;
5460;SDS011;2753;49.196;8.286;2023-02-23T10:09:23;13.77;;;8.57;;
5460;SDS011;2753;49.196;8.286;2023-02-23T10:11:53;13.93;;;8.87;;
5460;SDS011;2753;49.196;8.286;2023-02-23T10:23:05;15.67;;;7.87;;
5460;SDS011;2753;49.196;8.286;2023-02-23T10:25:35;14.53;;;6.87;;
5460;SDS011;2753;49.196;8.286;2023-02-23T10:28:04;19.13;;;6.60;;
5460;SDS011;2753;49.196;8.286;2023-02-23T10:30:33;13.60;;;5.97;;
5460;SDS011;2753;49.196;8.286;2023-02-23T10:35:46;7.10;;;5.97;;
5460;SDS011;2753;49.196;8.286;2023-02-23T10:38:17;20.17;;;7.93;;
5460;SDS011;2753;49.196;8.286;2023-02-23T10:40:52;13.97;;;7.90;;
5460;SDS011;2753;49.196;8.286;2023-02-23T10:43:20;25.30;;;8.07;;
5460;SDS011;2753;49.196;8.286;2023-02-23T10:45:47;11.80;;;7.37;;
5460;SDS011;2753;49.196;8.286;2023-02-23T10:48:19;13.20;;;7.83;;
5460;SDS011;2753;49.196;8.286;2023-02-23T10:50:48;15.73;;;7.47;;
5460;SDS011;2753;49.196;8.286;2023-02-23T10:53:16;12.37;;;7.90;;
5460;SDS011;2753;49.196;8.286;2023-02-23T10:55:43;18.63;;;7.90;;
5460;SDS011;2753;49.196;8.286;2023-02-23T10:58:11;12.57;;;7.60;;
5460;SDS011;2753;49.196;8.286;2023-02-23T11:00:49;12.50;;;7.63;;
5460;SDS011;2753;49.196;8.286;2023-02-23T11:04:10;14.70;;;7.23;;
5460;SDS011;2753;49.196;8.286;2023-02-23T11:08:54;14.30;;;7.57;;
5460;SDS011;2753;49.196;8.286;2023-02-23T11:11:22;15.13;;;7.50;;
5460;SDS011;2753;49.196;8.286;2023-02-23T11:13:50;11.33;;;6.10;;
5460;SDS011;2753;49.196;8.286;2023-02-23T11:16:27;13.57;;;7.40;;
5460;SDS011;2753;49.196;8.286;2023-02-23T11:21:25;10.90;;;6.10;;
5460;SDS011;2753;49.196;8.286;2023-02-23T11:23:57;10.60;;;5.40;;
5460;SDS011;2753;49.196;8.286;2023-02-23T11:26:47;11.50;;;6.67;;
5460;SDS011;2753;49.196;8.286;2023-02-23T11:31:49;11.00;;;5.77;;
5460;SDS011;2753;49.196;8.286;2023-02-23T11:34:26;11.40;;;6.60;;
5460;SDS011;2753;49.196;8.286;2023-02-23T11:37:02;8.87;;;6.43;;
5460;SDS011;2753;49.196;8.286;2023-02-23T11:39:30;8.13;;;5.00;;
5460;SDS011;2753;49.196;8.286;2023-02-23T11:42:04;12.60;;;6.50;;
5460;SDS011;2753;49.196;8.286;2023-02-23T11:44:39;15.20;;;6.70;;
5460;SDS011;2753;49.196;8.286;2023-02-23T11:47:11;10.20;;;5.93;;
5460;SDS011;2753;49.196;8.286;2023-02-23T11:49:42;8.33;;;5.90;;
5460;SDS011;2753;49.196;8.286;2023-02-23T11:52:13;11.83;;;5.97;;
5460;SDS011;2753;49.196;8.286;2023-02-23T11:54:48;10.33;;;5.60;;
5460;SDS011;2753;49.196;8.286;2023-02-23T11:57:21;9.10;;;5.50;;
5460;SDS011;2753;49.196;8.286;2023-02-23T11:59:49;9.07;;;5.00;;
5460;SDS011;2753;49.196;8.286;2023-02-23T12:05:16;9.70;;;6.40;;
5460;SDS011;2753;49.196;8.286;2023-02-23T12:08:05;8.33;;;5.03;;
5460;SDS011;2753;49.196;8.286;2023-02-23T12:10:41;22.10;;;9.00;;
5460;SDS011;2753;49.196;8.286;2023-02-23T12:16:01;19.00;;;10.13;;
5460;SDS011;2753;49.196;8.286;2023-02-23T12:19:11;12.63;;;6.03;;
5460;SDS011;2753;49.196;8.286;2023-02-23T12:24:18;11.60;;;5.30;;
5460;SDS011;2753;49.196;8.286;2023-02-23T12:26:59;8.40;;;4.10;;
5460;SDS011;2753;49.196;8.286;2023-02-23T12:35:17;6.10;;;2.70;;
5460;SDS011;2753;49.196;8.286;2023-02-23T12:37:46;10.17;;;3.93;;
5460;SDS011;2753;49.196;8.286;2023-02-23T12:40:23;8.53;;;3.77;;
5460;SDS011;2753;49.196;8.286;2023-02-23T12:54:09;12.13;;;5.40;;
5460;SDS011;2753;49.196;8.286;2023-02-23T12:59:55;11.80;;;6.77;;
5460;SDS011;2753;49.196;8.286;2023-02-23T13:05:36;9.40;;;5.17;;
5460;SDS011;2753;49.196;8.286;2023-02-23T13:11:14;8.37;;;5.00;;
5460;SDS011;2753;49.196;8.286;2023-02-23T13:13:53;9.53;;;5.60;;
5460;SDS011;2753;49.196;8.286;2023-02-23T13:21:39;12.47;;;5.93;;
5460;SDS011;2753;49.196;8.286;2023-02-23T13:26:54;13.13;;;4.80;;
5460;SDS011;2753;49.196;8.286;2023-02-23T13:31:51;13.57;;;5.17;;
5460;SDS011;2753;49.196;8.286;2023-02-23T13:34:23;19.50;;;5.10;;
5460;SDS011;2753;49.196;8.286;2023-02-23T13:37:11;17.20;;;5.00;;
5460;SDS011;2753;49.196;8.286;2023-02-23T13:42:58;5.00;;;4.17;;
5460;SDS011;2753;49.196;8.286;2023-02-23T13:56:24;9.40;;;4.17;;
5460;SDS011;2753;49.196;8.286;2023-02-23T14:01:31;15.90;;;4.93;;
5460;SDS011;2753;49.196;8.286;2023-02-23T14:04:06;8.63;;;4.80;;
5460;SDS011;2753;49.196;8.286;2023-02-23T14:06:38;7.80;;;4.27;;
5460;SDS011;2753;49.196;8.286;2023-02-23T14:09:12;7.83;;;4.93;;
5460;SDS011;2753;49.196;8.286;2023-02-23T14:11:55;6.27;;;4.67;;
5460;SDS011;2753;49.196;8.286;2023-02-23T14:17:42;13.07;;;5.33;;
5460;SDS011;2753;49.196;8.286;2023-02-23T14:22:37;10.50;;;5.00;;
5460;SDS011;2753;49.196;8.286;2023-02-23T14:28:11;11.47;;;4.97;;
5460;SDS011;2753;49.196;8.286;2023-02-23T14:43:59;10.37;;;5.60;;
5460;SDS011;2753;49.196;8.286;2023-02-23T14:46:30;12.10;;;4.80;;
5460;SDS011;2753;49.196;8.286;2023-02-23T14:49:06;8.87;;;4.87;;
5460;SDS011;2753;49.196;8.286;2023-02-23T14:51:40;6.67;;;4.70;;
5460;SDS011;2753;49.196;8.286;2023-02-23T14:57:18;13.43;;;6.17;;
5460;SDS011;2753;49.196;8.286;2023-02-23T14:59:52;13.07;;;7.17;;
5460;SDS011;2753;49.196;8.286;2023-02-23T15:02:24;14.60;;;5.63;;
5460;SDS011;2753;49.196;8.286;2023-02-23T15:04:52;17.83;;;5.63;;
5460;SDS011;2753;49.196;8.286;2023-02-23T15:09:52;15.23;;;5.40;;
5460;SDS011;2753;49.196;8.286;2023-02-23T15:12:26;11.40;;;4.90;;
5460;SDS011;2753;49.196;8.286;2023-02-23T15:14:58;10.37;;;5.30;;
5460;SDS011;2753;49.196;8.286;2023-02-23T15:17:27;11.20;;;5.60;;
5460;SDS011;2753;49.196;8.286;2023-02-23T15:20:05;12.13;;;5.20;;
5460;SDS011;2753;49.196;8.286;2023-02-23T15:22:35;12.70;;;4.73;;
5460;SDS011;2753;49.196;8.286;2023-02-23T15:30:49;8.30;;;6.07;;
5460;SDS011;2753;49.196;8.286;2023-02-23T15:33:17;23.27;;;9.60;;
5460;SDS011;2753;49.196;8.286;2023-02-23T15:36:14;21.40;;;12.43;;
5460;SDS011;2753;49.196;8.286;2023-02-23T15:38:39;31.93;;;13.27;;
5460;SDS011;2753;49.196;8.286;2023-02-23T15:43:43;27.13;;;12.80;;
5460;SDS011;2753;49.196;8.286;2023-02-23T15:46:11;24.53;;;13.23;;
5460;SDS011;2753;49.196;8.286;2023-02-23T15:48:52;24.50;;;12.30;;
5460;SDS011;2753;49.196;8.286;2023-02-23T15:51:20;29.30;;;14.03;;
5460;SDS011;2753;49.196;8.286;2023-02-23T15:53:53;27.50;;;13.70;;
5460;SDS011;2753;49.196;8.286;2023-02-23T15:56:21;21.73;;;12.93;;
5460;SDS011;2753;49.196;8.286;2023-02-23T15:58:54;25.63;;;13.70;;
5460;SDS011;2753;49.196;8.286;2023-02-23T16:01:26;25.03;;;13.23;;
5460;SDS011;2753;49.196;8.286;2023-02-23T16:04:04;30.17;;;14.17;;
5460;SDS011;2753;49.196;8.286;2023-02-23T16:06:33;30.50;;;17.07;;
5460;SDS011;2753;49.196;8.286;2023-02-23T16:09:10;25.60;;;15.80;;
5460;SDS011;2753;49.196;8.286;2023-02-23T16:11:51;36.10;;;15.50;;
5460;SDS011;2753;49.196;8.286;2023-02-23T16:14:21;28.80;;;14.40;;
5460;SDS011;2753;49.196;8.286;2023-02-23T16:16:48;35.20;;;17.30;;
5460;SDS011;2753;49.196;8.286;2023-02-23T16:19:17;33.77;;;14.90;;
5460;SDS011;2753;49.196;8.286;2023-02-23T16:21:51;28.70;;;14.70;;
5460;SDS011;2753;49.196;8.286;2023-02-23T16:24:22;25.87;;;15.27;;
5460;SDS011;2753;49.196;8.286;2023-02-23T16:26:54;31.40;;;14.57;;
5460;SDS011;2753;49.196;8.286;2023-02-23T16:29:35;28.07;;;14.87;;
5460;SDS011;2753;49.196;8.286;2023-02-23T16:32:31;28.40;;;14.90;;
5460;SDS011;2753;49.196;8.286;2023-02-23T16:35:16;29.67;;;15.63;;
5460;SDS011;2753;49.196;8.286;2023-02-23T16:37:57;23.57;;;15.50;;
5460;SDS011;2753;49.196;8.286;2023-02-23T16:40:26;25.20;;;15.83;;
5460;SDS011;2753;49.196;8.286;2023-02-23T16:42:52;29.63;;;15.60;;
5460;SDS011;2753;49.196;8.286;2023-02-23T16:45:23;26.93;;;14.80;;
5460;SDS011;2753;49.196;8.286;2023-02-23T16:47:50;26.23;;;15.90;;
5460;SDS011;2753;49.196;8.286;2023-02-23T16:50:20;30.37;;;15.07;;
5460;SDS011;2753;49.196;8.286;2023-02-23T16:52:49;28.47;;;16.27;;
5460;SDS011;2753;49.196;8.286;2023-02-23T16:55:18;34.20;;;17.03;;
5460;SDS011;2753;49.196;8.286;2023-02-23T16:57:50;31.50;;;17.93;;
5460;SDS011;2753;49.196;8.286;2023-02-23T17:00:25;32.63;;;18.47;;
5460;SDS011;2753;49.196;8.286;2023-02-23T17:02:53;43.10;;;22.53;;
5460;SDS011;2753;49.196;8.286;2023-02-23T17:05:20;47.77;;;24.47;;
5460;SDS011;2753;49.196;8.286;2023-02-23T17:07:50;49.97;;;25.10;;
5460;SDS011;2753;49.196;8.286;2023-02-23T17:10:21;65.23;;;27.73;;
5460;SDS011;2753;49.196;8.286;2023-02-23T17:12:52;52.93;;;27.10;;
5460;SDS011;2753;49.196;8.286;2023-02-23T17:15:23;69.10;;;33.20;;
5460;SDS011;2753;49.196;8.286;2023-02-23T17:17:51;47.57;;;25.70;;
5460;SDS011;2753;49.196;8.286;2023-02-23T17:20:20;39.30;;;22.93;;
5460;SDS011;2753;49.196;8.286;2023-02-23T17:22:50;34.43;;;19.87;;
5460;SDS011;2753;49.196;8.286;2023-02-23T17:25:16;50.33;;;23.23;;
5460;SDS011;2753;49.196;8.286;2023-02-23T17:27:42;49.50;;;24.23;;
5460;SDS011;2753;49.196;8.286;2023-02-23T17:30:08;44.13;;;22.63;;
5460;SDS011;2753;49.196;8.286;2023-02-23T17:32:34;35.17;;;16.33;;
5460;SDS011;2753;49.196;8.286;2023-02-23T17:35:01;28.07;;;15.97;;
5460;SDS011;2753;49.196;8.286;2023-02-23T17:37:27;31.50;;;15.70;;
5460;SDS011;2753;49.196;8.286;2023-02-23T17:39:52;25.60;;;14.00;;
5460;SDS011;2753;49.196;8.286;2023-02-23T17:42:18;22.73;;;13.53;;
5460;SDS011;2753;49.196;8.286;2023-02-23T17:44:44;23.43;;;12.70;;
5460;SDS011;2753;49.196;8.286;2023-02-23T17:47:09;19.57;;;11.63;;
5460;SDS011;2753;49.196;8.286;2023-02-23T17:49:35;20.20;;;12.10;;
5460;SDS011;2753;49.196;8.286;2023-02-23T17:52:01;22.60;;;12.97;;
5460;SDS011;2753;49.196;8.286;2023-02-23T17:54:27;18.10;;;11.80;;
5460;SDS011;2753;49.196;8.286;2023-02-23T17:56:53;21.80;;;11.40;;
5460;SDS011;2753;49.196;8.286;2023-02-23T17:59:19;23.73;;;13.77;;
5460;SDS011;2753;49.196;8.286;2023-02-23T18:01:46;25.40;;;13.37;;
5460;SDS011;2753;49.196;8.286;2023-02-23T18:04:14;27.60;;;13.73;;
5460;SDS011;2753;49.196;8.286;2023-02-23T18:06:40;20.00;;;12.90;;
5460;SDS011;2753;49.196;8.286;2023-02-23T18:09:06;20.63;;;13.40;;
5460;SDS011;2753;49.196;8.286;2023-02-23T18:11:32;28.10;;;13.50;;